sensor_id;sensor_type;location;lat;lon;timestamp;temperature;humidity
19389;DHT22;9830;41.876;23.474;2023-11-21T00:02:03;-0.40;99.90
19389;DHT22;9830;41.876;23.474;2023-11-21T00:04:30;-0.50;99.90
19389;DHT22;9830;41.876;23.474;2023-11-21T00:06:55;-0.60;99.90
19389;DHT22;9830;41.876;23.474;2023-11-21T00:09:21;-0.60;99.90
19389;DHT22;9830;41.876;23.474;2023-11-21T00:11:47;-0.70;99.90
19389;DHT22;9830;41.876;23.474;2023-11-21T00:14:13;-0.70;99.90
19389;DHT22;9830;41.876;23.474;2023-11-21T00:16:40;-0.70;99.90
19389;DHT22;9830;41.876;23.474;2023-11-21T00:19:06;-0.80;99.90
19389;DHT22;9830;41.876;23.474;2023-11-21T00:21:32;-0.80;99.90
19389;DHT22;9830;41.876;23.474;2023-11-21T00:23:57;-0.70;99.90
19389;DHT22;9830;41.876;23.474;2023-11-21T00:26:23;-0.70;99.90
19389;DHT22;9830;41.876;23.474;2023-11-21T00:28:50;-0.70;99.90
19389;DHT22;9830;41.876;23.474;2023-11-21T00:31:16;-0.70;99.90
19389;DHT22;9830;41.876;23.474;2023-11-21T00:33:42;-0.80;99.90
19389;DHT22;9830;41.876;23.474;2023-11-21T00:36:08;-0.80;99.90
19389;DHT22;9830;41.876;23.474;2023-11-21T00:38:36;-0.80;99.90
19389;DHT22;9830;41.876;23.474;2023-11-21T00:41:01;-1.00;99.90
19389;DHT22;9830;41.876;23.474;2023-11-21T00:43:28;-1.00;99.90
19389;DHT22;9830;41.876;23.474;2023-11-21T00:45:54;-0.90;99.90
19389;DHT22;9830;41.876;23.474;2023-11-21T00:48:19;-1.00;99.90
19389;DHT22;9830;41.876;23.474;2023-11-21T00:50:45;-1.00;99.90
19389;DHT22;9830;41.876;23.474;2023-11-21T00:53:11;-1.00;99.90
19389;DHT22;9830;41.876;23.474;2023-11-21T00:55:38;-0.90;99.90
19389;DHT22;9830;41.876;23.474;2023-11-21T00:58:05;-1.00;99.90
19389;DHT22;9830;41.876;23.474;2023-11-21T01:00:35;-1.00;99.90
19389;DHT22;9830;41.876;23.474;2023-11-21T01:03:01;-1.00;99.90
19389;DHT22;9830;41.876;23.474;2023-11-21T01:05:27;-1.00;99.90
19389;DHT22;9830;41.876;23.474;2023-11-21T01:07:53;-0.90;99.90
19389;DHT22;9830;41.876;23.474;2023-11-21T01:10:19;-0.90;99.90
19389;DHT22;9830;41.876;23.474;2023-11-21T01:12:44;-0.90;99.90
19389;DHT22;9830;41.876;23.474;2023-11-21T01:15:10;-0.90;99.90
19389;DHT22;9830;41.876;23.474;2023-11-21T01:17:37;-1.00;99.90
19389;DHT22;9830;41.876;23.474;2023-11-21T01:20:04;-1.10;99.90
19389;DHT22;9830;41.876;23.474;2023-11-21T01:22:38;-1.10;99.90
19389;DHT22;9830;41.876;23.474;2023-11-21T01:25:04;-1.10;99.90
19389;DHT22;9830;41.876;23.474;2023-11-21T01:27:32;-1.00;99.90
19389;DHT22;9830;41.876;23.474;2023-11-21T01:29:57;-1.10;99.90
19389;DHT22;9830;41.876;23.474;2023-11-21T01:32:23;-1.10;99.90
19389;DHT22;9830;41.876;23.474;2023-11-21T01:34:50;-1.20;99.90
19389;DHT22;9830;41.876;23.474;2023-11-21T01:37:16;-1.20;99.90
19389;DHT22;9830;41.876;23.474;2023-11-21T01:39:43;-1.10;99.90
19389;DHT22;9830;41.876;23.474;2023-11-21T01:42:09;-1.10;99.90
19389;DHT22;9830;41.876;23.474;2023-11-21T01:44:36;-1.10;99.90
19389;DHT22;9830;41.876;23.474;2023-11-21T01:47:02;-1.20;99.90
19389;DHT22;9830;41.876;23.474;2023-11-21T01:49:31;-1.10;99.90
19389;DHT22;9830;41.876;23.474;2023-11-21T01:51:59;-1.20;99.90
19389;DHT22;9830;41.876;23.474;2023-11-21T01:54:25;-1.10;99.90
19389;DHT22;9830;41.876;23.474;2023-11-21T01:56:51;-1.10;99.90
19389;DHT22;9830;41.876;23.474;2023-11-21T01:59:21;-1.10;99.90
19389;DHT22;9830;41.876;23.474;2023-11-21T02:01:47;-1.10;99.90
19389;DHT22;9830;41.876;23.474;2023-11-21T02:04:13;-1.10;99.90
19389;DHT22;9830;41.876;23.474;2023-11-21T02:06:39;-1.10;99.90
19389;DHT22;9830;41.876;23.474;2023-11-21T02:09:05;-1.20;99.90
19389;DHT22;9830;41.876;23.474;2023-11-21T02:11:31;-1.30;99.90
19389;DHT22;9830;41.876;23.474;2023-11-21T02:13:59;-1.20;99.90
19389;DHT22;9830;41.876;23.474;2023-11-21T02:16:26;-1.20;99.90
19389;DHT22;9830;41.876;23.474;2023-11-21T02:18:52;-1.10;99.90
19389;DHT22;9830;41.876;23.474;2023-11-21T02:21:18;-1.20;99.90
19389;DHT22;9830;41.876;23.474;2023-11-21T02:23:44;-1.10;99.90
19389;DHT22;9830;41.876;23.474;2023-11-21T02:26:12;-1.20;99.90
19389;DHT22;9830;41.876;23.474;2023-11-21T02:28:39;-1.10;99.90
19389;DHT22;9830;41.876;23.474;2023-11-21T02:31:05;-1.10;99.90
19389;DHT22;9830;41.876;23.474;2023-11-21T02:33:33;-1.00;99.90
19389;DHT22;9830;41.876;23.474;2023-11-21T02:36:00;-0.90;99.90
19389;DHT22;9830;41.876;23.474;2023-11-21T02:38:26;-0.90;99.90
19389;DHT22;9830;41.876;23.474;2023-11-21T02:40:51;-0.90;99.90
19389;DHT22;9830;41.876;23.474;2023-11-21T02:43:17;-0.70;99.90
19389;DHT22;9830;41.876;23.474;2023-11-21T02:45:43;-0.70;99.90
19389;DHT22;9830;41.876;23.474;2023-11-21T02:48:08;-0.80;99.90
19389;DHT22;9830;41.876;23.474;2023-11-21T02:50:34;-0.80;99.90
19389;DHT22;9830;41.876;23.474;2023-11-21T02:53:01;-0.80;99.90
19389;DHT22;9830;41.876;23.474;2023-11-21T02:55:27;-0.80;99.90
19389;DHT22;9830;41.876;23.474;2023-11-21T02:57:53;-0.90;99.90
19389;DHT22;9830;41.876;23.474;2023-11-21T03:00:19;-1.00;99.90
19389;DHT22;9830;41.876;23.474;2023-11-21T03:02:45;-1.00;99.90
19389;DHT22;9830;41.876;23.474;2023-11-21T03:05:12;-1.00;99.90
19389;DHT22;9830;41.876;23.474;2023-11-21T03:07:38;-1.10;99.90
19389;DHT22;9830;41.876;23.474;2023-11-21T03:10:04;-1.10;99.90
19389;DHT22;9830;41.876;23.474;2023-11-21T03:12:30;-1.20;99.90
19389;DHT22;9830;41.876;23.474;2023-11-21T03:14:56;-1.20;99.90
19389;DHT22;9830;41.876;23.474;2023-11-21T03:17:21;-1.30;99.90
19389;DHT22;9830;41.876;23.474;2023-11-21T03:19:47;-1.30;99.90
19389;DHT22;9830;41.876;23.474;2023-11-21T03:22:13;-1.20;99.90
19389;DHT22;9830;41.876;23.474;2023-11-21T03:24:38;-1.20;99.90
19389;DHT22;9830;41.876;23.474;2023-11-21T03:27:04;-1.20;99.90
19389;DHT22;9830;41.876;23.474;2023-11-21T03:29:30;-1.20;99.90
19389;DHT22;9830;41.876;23.474;2023-11-21T03:31:56;-1.30;99.90
19389;DHT22;9830;41.876;23.474;2023-11-21T03:34:26;-1.40;99.90
19389;DHT22;9830;41.876;23.474;2023-11-21T03:36:52;-1.40;99.90
19389;DHT22;9830;41.876;23.474;2023-11-21T03:39:22;-1.50;99.90
19389;DHT22;9830;41.876;23.474;2023-11-21T03:41:48;-1.50;99.90
19389;DHT22;9830;41.876;23.474;2023-11-21T03:44:14;-1.50;99.90
19389;DHT22;9830;41.876;23.474;2023-11-21T03:46:40;-1.70;99.90
19389;DHT22;9830;41.876;23.474;2023-11-21T03:49:06;-1.70;99.90
19389;DHT22;9830;41.876;23.474;2023-11-21T03:51:33;-1.70;99.90
19389;DHT22;9830;41.876;23.474;2023-11-21T03:53:59;-1.70;99.90
19389;DHT22;9830;41.876;23.474;2023-11-21T03:56:25;-1.60;99.90
19389;DHT22;9830;41.876;23.474;2023-11-21T03:58:50;-1.60;99.90
19389;DHT22;9830;41.876;23.474;2023-11-21T04:01:22;-1.60;99.90
19389;DHT22;9830;41.876;23.474;2023-11-21T04:03:49;-1.60;99.90
19389;DHT22;9830;41.876;23.474;2023-11-21T04:06:15;-1.60;99.90
19389;DHT22;9830;41.876;23.474;2023-11-21T04:08:43;-1.60;99.90
19389;DHT22;9830;41.876;23.474;2023-11-21T04:11:09;-1.70;99.90
19389;DHT22;9830;41.876;23.474;2023-11-21T04:13:40;-1.70;99.90
19389;DHT22;9830;41.876;23.474;2023-11-21T04:16:07;-1.70;99.90
19389;DHT22;9830;41.876;23.474;2023-11-21T04:18:35;-1.80;99.90
19389;DHT22;9830;41.876;23.474;2023-11-21T04:21:01;-1.80;99.90
19389;DHT22;9830;41.876;23.474;2023-11-21T04:23:29;-1.70;99.90
19389;DHT22;9830;41.876;23.474;2023-11-21T04:25:55;-1.70;99.90
19389;DHT22;9830;41.876;23.474;2023-11-21T04:28:23;-1.70;99.90
19389;DHT22;9830;41.876;23.474;2023-11-21T04:30:49;-1.80;99.90
19389;DHT22;9830;41.876;23.474;2023-11-21T04:33:15;-1.80;99.90
19389;DHT22;9830;41.876;23.474;2023-11-21T04:35:41;-1.80;99.90
19389;DHT22;9830;41.876;23.474;2023-11-21T04:38:07;-1.70;99.90
19389;DHT22;9830;41.876;23.474;2023-11-21T04:40:33;-1.80;99.90
19389;DHT22;9830;41.876;23.474;2023-11-21T04:42:58;-1.80;99.90
19389;DHT22;9830;41.876;23.474;2023-11-21T04:45:24;-1.80;99.90
19389;DHT22;9830;41.876;23.474;2023-11-21T04:47:50;-1.70;99.90
19389;DHT22;9830;41.876;23.474;2023-11-21T04:50:16;-1.70;99.90
19389;DHT22;9830;41.876;23.474;2023-11-21T04:52:42;-1.70;99.90
19389;DHT22;9830;41.876;23.474;2023-11-21T04:55:08;-1.70;99.90
19389;DHT22;9830;41.876;23.474;2023-11-21T04:57:36;-1.70;99.90
19389;DHT22;9830;41.876;23.474;2023-11-21T05:00:03;-1.80;99.90
19389;DHT22;9830;41.876;23.474;2023-11-21T05:02:34;-1.80;99.90
19389;DHT22;9830;41.876;23.474;2023-11-21T05:05:00;-1.80;99.90
19389;DHT22;9830;41.876;23.474;2023-11-21T05:07:26;-1.70;99.90
19389;DHT22;9830;41.876;23.474;2023-11-21T05:09:57;-1.60;99.90
19389;DHT22;9830;41.876;23.474;2023-11-21T05:12:24;-1.60;99.90
19389;DHT22;9830;41.876;23.474;2023-11-21T05:14:50;-1.60;99.90
19389;DHT22;9830;41.876;23.474;2023-11-21T05:17:16;-1.70;99.90
19389;DHT22;9830;41.876;23.474;2023-11-21T05:19:42;-1.70;99.90
19389;DHT22;9830;41.876;23.474;2023-11-21T05:22:10;-1.70;99.90
19389;DHT22;9830;41.876;23.474;2023-11-21T05:24:37;-1.50;99.90
19389;DHT22;9830;41.876;23.474;2023-11-21T05:27:04;-1.60;99.90
19389;DHT22;9830;41.876;23.474;2023-11-21T05:29:30;-1.70;99.90
19389;DHT22;9830;41.876;23.474;2023-11-21T05:31:56;-1.60;99.90
19389;DHT22;9830;41.876;23.474;2023-11-21T05:34:22;-1.60;99.90
19389;DHT22;9830;41.876;23.474;2023-11-21T05:36:50;-1.50;99.90
19389;DHT22;9830;41.876;23.474;2023-11-21T05:39:16;-1.40;99.90
19389;DHT22;9830;41.876;23.474;2023-11-21T05:41:43;-1.40;99.90
19389;DHT22;9830;41.876;23.474;2023-11-21T05:44:08;-1.20;99.90
19389;DHT22;9830;41.876;23.474;2023-11-21T05:46:34;-1.20;99.90
19389;DHT22;9830;41.876;23.474;2023-11-21T05:49:00;-1.00;99.90
19389;DHT22;9830;41.876;23.474;2023-11-21T05:51:26;-0.80;99.90
19389;DHT22;9830;41.876;23.474;2023-11-21T05:53:51;-0.40;99.90
19389;DHT22;9830;41.876;23.474;2023-11-21T05:56:17;0.10;99.90
19389;DHT22;9830;41.876;23.474;2023-11-21T05:58:43;0.30;99.90
19389;DHT22;9830;41.876;23.474;2023-11-21T06:01:09;0.20;99.90
19389;DHT22;9830;41.876;23.474;2023-11-21T06:03:38;0.10;99.90
19389;DHT22;9830;41.876;23.474;2023-11-21T06:06:04;0.10;99.90
19389;DHT22;9830;41.876;23.474;2023-11-21T06:08:30;-0.10;99.90
19389;DHT22;9830;41.876;23.474;2023-11-21T06:10:56;-0.10;99.90
19389;DHT22;9830;41.876;23.474;2023-11-21T06:13:21;-0.10;99.90
19389;DHT22;9830;41.876;23.474;2023-11-21T06:15:53;0.40;99.90
19389;DHT22;9830;41.876;23.474;2023-11-21T06:18:18;0.60;99.90
19389;DHT22;9830;41.876;23.474;2023-11-21T06:20:47;0.50;99.90
19389;DHT22;9830;41.876;23.474;2023-11-21T06:23:13;0.20;99.90
19389;DHT22;9830;41.876;23.474;2023-11-21T06:25:39;0.20;99.90
19389;DHT22;9830;41.876;23.474;2023-11-21T06:28:05;0.20;99.90
19389;DHT22;9830;41.876;23.474;2023-11-21T06:30:31;0.30;99.90
19389;DHT22;9830;41.876;23.474;2023-11-21T06:32:57;0.40;99.90
19389;DHT22;9830;41.876;23.474;2023-11-21T06:35:23;0.40;99.90
19389;DHT22;9830;41.876;23.474;2023-11-21T06:37:48;0.40;99.90
19389;DHT22;9830;41.876;23.474;2023-11-21T06:40:15;0.50;99.90
19389;DHT22;9830;41.876;23.474;2023-11-21T06:42:41;0.60;99.90
19389;DHT22;9830;41.876;23.474;2023-11-21T06:45:07;1.00;99.90
19389;DHT22;9830;41.876;23.474;2023-11-21T06:47:36;1.50;99.90
19389;DHT22;9830;41.876;23.474;2023-11-21T06:50:03;1.70;99.90
19389;DHT22;9830;41.876;23.474;2023-11-21T06:52:29;1.60;99.90
19389;DHT22;9830;41.876;23.474;2023-11-21T06:54:55;2.00;99.90
19389;DHT22;9830;41.876;23.474;2023-11-21T06:57:23;2.30;99.90
19389;DHT22;9830;41.876;23.474;2023-11-21T06:59:49;2.50;99.90
19389;DHT22;9830;41.876;23.474;2023-11-21T07:02:18;2.70;99.90
19389;DHT22;9830;41.876;23.474;2023-11-21T07:04:46;2.60;99.90
19389;DHT22;9830;41.876;23.474;2023-11-21T07:07:12;2.30;99.90
19389;DHT22;9830;41.876;23.474;2023-11-21T07:09:38;2.00;99.90
19389;DHT22;9830;41.876;23.474;2023-11-21T07:12:05;2.10;99.90
19389;DHT22;9830;41.876;23.474;2023-11-21T07:14:34;2.00;99.90
19389;DHT22;9830;41.876;23.474;2023-11-21T07:17:02;2.00;99.90
19389;DHT22;9830;41.876;23.474;2023-11-21T07:19:28;2.10;99.90
19389;DHT22;9830;41.876;23.474;2023-11-21T07:21:54;1.90;99.90
19389;DHT22;9830;41.876;23.474;2023-11-21T07:24:21;2.30;99.90
19389;DHT22;9830;41.876;23.474;2023-11-21T07:26:48;2.70;99.90
19389;DHT22;9830;41.876;23.474;2023-11-21T07:29:14;2.80;99.90
19389;DHT22;9830;41.876;23.474;2023-11-21T07:31:42;3.00;99.90
19389;DHT22;9830;41.876;23.474;2023-11-21T07:34:10;3.20;99.90
19389;DHT22;9830;41.876;23.474;2023-11-21T07:36:37;3.50;99.90
19389;DHT22;9830;41.876;23.474;2023-11-21T07:39:03;3.70;99.90
19389;DHT22;9830;41.876;23.474;2023-11-21T07:41:29;3.90;99.90
19389;DHT22;9830;41.876;23.474;2023-11-21T07:43:55;4.40;99.90
19389;DHT22;9830;41.876;23.474;2023-11-21T07:46:21;5.40;99.90
19389;DHT22;9830;41.876;23.474;2023-11-21T07:48:50;7.10;99.90
19389;DHT22;9830;41.876;23.474;2023-11-21T07:51:17;9.10;99.90
19389;DHT22;9830;41.876;23.474;2023-11-21T07:53:43;9.40;99.90
19389;DHT22;9830;41.876;23.474;2023-11-21T07:56:10;10.60;99.90
19389;DHT22;9830;41.876;23.474;2023-11-21T07:58:36;12.60;96.80
19389;DHT22;9830;41.876;23.474;2023-11-21T08:01:03;12.40;95.40
19389;DHT22;9830;41.876;23.474;2023-11-21T08:03:29;11.60;97.40
19389;DHT22;9830;41.876;23.474;2023-11-21T08:05:56;10.30;99.90
19389;DHT22;9830;41.876;23.474;2023-11-21T08:08:23;9.40;99.90
19389;DHT22;9830;41.876;23.474;2023-11-21T08:10:49;9.10;99.90
19389;DHT22;9830;41.876;23.474;2023-11-21T08:13:23;9.90;99.70
19389;DHT22;9830;41.876;23.474;2023-11-21T08:15:50;9.10;99.90
19389;DHT22;9830;41.876;23.474;2023-11-21T08:18:16;8.10;99.90
19389;DHT22;9830;41.876;23.474;2023-11-21T08:20:43;8.60;99.90
19389;DHT22;9830;41.876;23.474;2023-11-21T08:23:10;8.30;99.90
19389;DHT22;9830;41.876;23.474;2023-11-21T08:25:36;7.80;99.90
19389;DHT22;9830;41.876;23.474;2023-11-21T08:28:02;8.70;99.90
19389;DHT22;9830;41.876;23.474;2023-11-21T08:30:29;9.50;99.90
19389;DHT22;9830;41.876;23.474;2023-11-21T08:32:55;9.80;99.90
19389;DHT22;9830;41.876;23.474;2023-11-21T08:35:24;9.70;99.90
19389;DHT22;9830;41.876;23.474;2023-11-21T08:37:53;10.60;99.90
19389;DHT22;9830;41.876;23.474;2023-11-21T08:40:19;11.20;96.70
19389;DHT22;9830;41.876;23.474;2023-11-21T08:42:46;10.50;99.90
19389;DHT22;9830;41.876;23.474;2023-11-21T08:45:14;10.00;99.90
19389;DHT22;9830;41.876;23.474;2023-11-21T08:47:39;10.10;99.90
19389;DHT22;9830;41.876;23.474;2023-11-21T08:50:07;9.90;99.90
19389;DHT22;9830;41.876;23.474;2023-11-21T08:52:36;9.90;99.90
19389;DHT22;9830;41.876;23.474;2023-11-21T08:55:02;10.60;99.90
19389;DHT22;9830;41.876;23.474;2023-11-21T08:57:34;10.60;99.90
19389;DHT22;9830;41.876;23.474;2023-11-21T09:00:01;11.40;96.70
19389;DHT22;9830;41.876;23.474;2023-11-21T09:02:26;12.70;91.30
19389;DHT22;9830;41.876;23.474;2023-11-21T09:04:52;13.00;84.40
19389;DHT22;9830;41.876;23.474;2023-11-21T09:07:19;11.60;94.00
19389;DHT22;9830;41.876;23.474;2023-11-21T09:09:49;12.10;96.20
19389;DHT22;9830;41.876;23.474;2023-11-21T09:12:15;12.60;91.10
19389;DHT22;9830;41.876;23.474;2023-11-21T09:14:42;13.00;87.90
19389;DHT22;9830;41.876;23.474;2023-11-21T09:17:09;13.20;86.50
19389;DHT22;9830;41.876;23.474;2023-11-21T09:19:42;13.00;89.40
19389;DHT22;9830;41.876;23.474;2023-11-21T09:22:11;13.00;88.50
19389;DHT22;9830;41.876;23.474;2023-11-21T09:24:36;13.10;84.60
19389;DHT22;9830;41.876;23.474;2023-11-21T09:27:03;12.50;88.50
19389;DHT22;9830;41.876;23.474;2023-11-21T09:29:30;12.60;90.40
19389;DHT22;9830;41.876;23.474;2023-11-21T09:31:57;13.70;77.80
19389;DHT22;9830;41.876;23.474;2023-11-21T09:34:25;12.80;83.20
19389;DHT22;9830;41.876;23.474;2023-11-21T09:36:51;12.80;85.10
19389;DHT22;9830;41.876;23.474;2023-11-21T09:39:17;13.10;85.70
19389;DHT22;9830;41.876;23.474;2023-11-21T09:41:55;13.60;81.90
19389;DHT22;9830;41.876;23.474;2023-11-21T09:44:36;13.90;78.50
19389;DHT22;9830;41.876;23.474;2023-11-21T09:47:05;13.80;78.90
19389;DHT22;9830;41.876;23.474;2023-11-21T09:49:37;13.20;80.70
19389;DHT22;9830;41.876;23.474;2023-11-21T09:52:04;13.40;87.30
19389;DHT22;9830;41.876;23.474;2023-11-21T09:54:31;13.50;83.90
19389;DHT22;9830;41.876;23.474;2023-11-21T09:56:59;13.50;81.40
19389;DHT22;9830;41.876;23.474;2023-11-21T09:59:30;14.20;72.70
19389;DHT22;9830;41.876;23.474;2023-11-21T10:01:58;13.60;72.90
19389;DHT22;9830;41.876;23.474;2023-11-21T10:04:24;13.40;76.60
19389;DHT22;9830;41.876;23.474;2023-11-21T10:06:50;13.00;83.90
19389;DHT22;9830;41.876;23.474;2023-11-21T10:09:18;12.60;91.40
19389;DHT22;9830;41.876;23.474;2023-11-21T10:11:47;12.80;90.20
19389;DHT22;9830;41.876;23.474;2023-11-21T10:14:18;12.70;91.30
19389;DHT22;9830;41.876;23.474;2023-11-21T10:16:48;12.30;92.20
19389;DHT22;9830;41.876;23.474;2023-11-21T10:19:14;12.00;95.40
19389;DHT22;9830;41.876;23.474;2023-11-21T10:21:41;11.80;96.80
19389;DHT22;9830;41.876;23.474;2023-11-21T10:24:07;11.90;97.00
19389;DHT22;9830;41.876;23.474;2023-11-21T10:26:34;11.50;96.40
19389;DHT22;9830;41.876;23.474;2023-11-21T10:29:01;11.80;97.40
19389;DHT22;9830;41.876;23.474;2023-11-21T10:31:31;11.90;97.50
19389;DHT22;9830;41.876;23.474;2023-11-21T10:34:19;11.20;99.90
19389;DHT22;9830;41.876;23.474;2023-11-21T10:36:46;10.60;99.90
19389;DHT22;9830;41.876;23.474;2023-11-21T10:39:17;10.50;99.90
19389;DHT22;9830;41.876;23.474;2023-11-21T10:41:44;10.10;99.90
19389;DHT22;9830;41.876;23.474;2023-11-21T10:44:13;10.40;99.90
19389;DHT22;9830;41.876;23.474;2023-11-21T10:46:40;10.10;99.90
19389;DHT22;9830;41.876;23.474;2023-11-21T10:49:08;10.10;99.90
19389;DHT22;9830;41.876;23.474;2023-11-21T10:51:35;10.10;99.90
19389;DHT22;9830;41.876;23.474;2023-11-21T10:54:00;10.20;99.90
19389;DHT22;9830;41.876;23.474;2023-11-21T10:56:27;10.50;99.90
19389;DHT22;9830;41.876;23.474;2023-11-21T10:58:56;10.60;99.90
19389;DHT22;9830;41.876;23.474;2023-11-21T11:01:25;10.40;99.90
19389;DHT22;9830;41.876;23.474;2023-11-21T11:03:54;10.80;99.90
19389;DHT22;9830;41.876;23.474;2023-11-21T11:06:21;10.90;99.90
19389;DHT22;9830;41.876;23.474;2023-11-21T11:08:51;11.00;99.90
19389;DHT22;9830;41.876;23.474;2023-11-21T11:11:17;11.30;99.90
19389;DHT22;9830;41.876;23.474;2023-11-21T11:13:44;11.40;99.90
19389;DHT22;9830;41.876;23.474;2023-11-21T11:16:12;11.70;99.90
19389;DHT22;9830;41.876;23.474;2023-11-21T11:18:42;12.00;99.50
19389;DHT22;9830;41.876;23.474;2023-11-21T11:21:46;11.90;97.10
19389;DHT22;9830;41.876;23.474;2023-11-21T11:35:38;12.30;94.20
19389;DHT22;9830;41.876;23.474;2023-11-21T11:38:08;12.10;95.80
19389;DHT22;9830;41.876;23.474;2023-11-21T11:40:41;11.90;95.40
19389;DHT22;9830;41.876;23.474;2023-11-21T11:43:07;12.00;95.30
19389;DHT22;9830;41.876;23.474;2023-11-21T11:45:34;12.00;94.60
19389;DHT22;9830;41.876;23.474;2023-11-21T11:48:07;12.00;95.10
19389;DHT22;9830;41.876;23.474;2023-11-21T11:50:33;12.40;92.10
19389;DHT22;9830;41.876;23.474;2023-11-21T11:53:13;12.80;87.80
19389;DHT22;9830;41.876;23.474;2023-11-21T11:55:39;12.70;88.00
19389;DHT22;9830;41.876;23.474;2023-11-21T11:58:08;12.50;88.90
19389;DHT22;9830;41.876;23.474;2023-11-21T12:00:35;12.60;91.50
19389;DHT22;9830;41.876;23.474;2023-11-21T12:03:04;12.50;89.50
19389;DHT22;9830;41.876;23.474;2023-11-21T12:05:32;12.80;88.30
19389;DHT22;9830;41.876;23.474;2023-11-21T12:08:01;12.60;89.30
19389;DHT22;9830;41.876;23.474;2023-11-21T12:10:36;12.60;89.00
19389;DHT22;9830;41.876;23.474;2023-11-21T12:13:09;12.40;91.10
19389;DHT22;9830;41.876;23.474;2023-11-21T12:15:36;12.00;92.90
19389;DHT22;9830;41.876;23.474;2023-11-21T12:18:03;11.90;93.40
19389;DHT22;9830;41.876;23.474;2023-11-21T12:20:30;11.90;93.90
19389;DHT22;9830;41.876;23.474;2023-11-21T12:22:58;11.80;94.80
19389;DHT22;9830;41.876;23.474;2023-11-21T12:25:28;11.80;95.80
19389;DHT22;9830;41.876;23.474;2023-11-21T12:27:55;11.80;95.90
19389;DHT22;9830;41.876;23.474;2023-11-21T12:30:24;11.90;94.40
19389;DHT22;9830;41.876;23.474;2023-11-21T12:32:52;11.50;96.10
19389;DHT22;9830;41.876;23.474;2023-11-21T12:35:19;11.70;96.70
19389;DHT22;9830;41.876;23.474;2023-11-21T12:37:46;11.70;95.50
19389;DHT22;9830;41.876;23.474;2023-11-21T12:40:15;11.90;95.00
19389;DHT22;9830;41.876;23.474;2023-11-21T12:42:43;11.80;95.20
19389;DHT22;9830;41.876;23.474;2023-11-21T12:47:52;11.70;94.10
19389;DHT22;9830;41.876;23.474;2023-11-21T12:50:24;11.50;94.60
19389;DHT22;9830;41.876;23.474;2023-11-21T12:52:57;11.40;95.90
19389;DHT22;9830;41.876;23.474;2023-11-21T12:55:23;11.30;96.00
19389;DHT22;9830;41.876;23.474;2023-11-21T12:57:50;11.20;96.40
19389;DHT22;9830;41.876;23.474;2023-11-21T13:00:18;11.20;96.80
19389;DHT22;9830;41.876;23.474;2023-11-21T13:02:55;11.20;97.40
19389;DHT22;9830;41.876;23.474;2023-11-21T13:05:36;10.90;98.30
19389;DHT22;9830;41.876;23.474;2023-11-21T13:08:05;10.80;99.40
19389;DHT22;9830;41.876;23.474;2023-11-21T13:10:34;10.90;99.10
19389;DHT22;9830;41.876;23.474;2023-11-21T13:13:05;10.80;99.60
19389;DHT22;9830;41.876;23.474;2023-11-21T13:15:34;10.70;99.90
19389;DHT22;9830;41.876;23.474;2023-11-21T13:18:02;10.60;99.90
19389;DHT22;9830;41.876;23.474;2023-11-21T13:20:29;10.60;99.90
19389;DHT22;9830;41.876;23.474;2023-11-21T13:22:56;10.50;99.90
19389;DHT22;9830;41.876;23.474;2023-11-21T13:25:24;10.50;99.90
19389;DHT22;9830;41.876;23.474;2023-11-21T13:27:59;10.40;99.90
19389;DHT22;9830;41.876;23.474;2023-11-21T13:30:28;10.40;99.90
19389;DHT22;9830;41.876;23.474;2023-11-21T13:33:02;10.30;99.90
19389;DHT22;9830;41.876;23.474;2023-11-21T13:35:29;10.20;99.90
19389;DHT22;9830;41.876;23.474;2023-11-21T13:38:05;10.10;99.90
19389;DHT22;9830;41.876;23.474;2023-11-21T13:40:32;10.00;99.90
19389;DHT22;9830;41.876;23.474;2023-11-21T13:43:00;10.00;99.90
19389;DHT22;9830;41.876;23.474;2023-11-21T13:45:30;10.00;99.90
19389;DHT22;9830;41.876;23.474;2023-11-21T13:47:56;9.90;99.90
19389;DHT22;9830;41.876;23.474;2023-11-21T13:50:26;9.80;99.90
19389;DHT22;9830;41.876;23.474;2023-11-21T13:52:59;9.70;99.90
19389;DHT22;9830;41.876;23.474;2023-11-21T13:55:34;9.60;99.90
19389;DHT22;9830;41.876;23.474;2023-11-21T13:58:01;9.50;99.90
19389;DHT22;9830;41.876;23.474;2023-11-21T14:00:28;9.40;99.90
19389;DHT22;9830;41.876;23.474;2023-11-21T14:03:08;9.50;99.90
19389;DHT22;9830;41.876;23.474;2023-11-21T14:05:43;9.40;99.90
19389;DHT22;9830;41.876;23.474;2023-11-21T14:08:10;9.40;99.90
19389;DHT22;9830;41.876;23.474;2023-11-21T14:10:37;9.30;99.90
19389;DHT22;9830;41.876;23.474;2023-11-21T14:13:11;9.30;99.90
19389;DHT22;9830;41.876;23.474;2023-11-21T14:15:39;9.20;99.90
19389;DHT22;9830;41.876;23.474;2023-11-21T14:18:09;9.20;99.90
19389;DHT22;9830;41.876;23.474;2023-11-21T14:20:40;9.10;99.90
19389;DHT22;9830;41.876;23.474;2023-11-21T14:23:06;9.10;99.90
19389;DHT22;9830;41.876;23.474;2023-11-21T14:25:36;9.00;99.90
19389;DHT22;9830;41.876;23.474;2023-11-21T14:28:06;8.90;99.90
19389;DHT22;9830;41.876;23.474;2023-11-21T14:30:32;8.90;99.90
19389;DHT22;9830;41.876;23.474;2023-11-21T14:33:01;8.80;99.90
19389;DHT22;9830;41.876;23.474;2023-11-21T14:35:27;8.80;99.90
19389;DHT22;9830;41.876;23.474;2023-11-21T14:37:55;8.70;99.90
19389;DHT22;9830;41.876;23.474;2023-11-21T14:40:22;8.70;99.90
19389;DHT22;9830;41.876;23.474;2023-11-21T14:42:50;8.60;99.90
19389;DHT22;9830;41.876;23.474;2023-11-21T14:45:19;8.60;99.90
19389;DHT22;9830;41.876;23.474;2023-11-21T14:47:48;8.50;99.90
19389;DHT22;9830;41.876;23.474;2023-11-21T14:50:42;8.40;99.90
19389;DHT22;9830;41.876;23.474;2023-11-21T14:53:09;8.30;99.90
19389;DHT22;9830;41.876;23.474;2023-11-21T14:55:37;8.30;99.90
19389;DHT22;9830;41.876;23.474;2023-11-21T14:58:18;8.20;99.90
19389;DHT22;9830;41.876;23.474;2023-11-21T15:01:04;8.10;99.90
19389;DHT22;9830;41.876;23.474;2023-11-21T15:03:30;8.00;99.90
19389;DHT22;9830;41.876;23.474;2023-11-21T15:05:59;8.00;99.90
19389;DHT22;9830;41.876;23.474;2023-11-21T15:08:44;8.00;99.90
19389;DHT22;9830;41.876;23.474;2023-11-21T15:11:11;7.90;99.90
19389;DHT22;9830;41.876;23.474;2023-11-21T15:13:40;7.80;99.90
19389;DHT22;9830;41.876;23.474;2023-11-21T15:16:08;7.70;99.90
19389;DHT22;9830;41.876;23.474;2023-11-21T15:18:35;7.70;99.90
19389;DHT22;9830;41.876;23.474;2023-11-21T15:21:01;7.70;99.90
19389;DHT22;9830;41.876;23.474;2023-11-21T15:23:29;7.70;99.90
19389;DHT22;9830;41.876;23.474;2023-11-21T15:25:56;7.60;99.90
19389;DHT22;9830;41.876;23.474;2023-11-21T15:28:23;7.60;99.90
19389;DHT22;9830;41.876;23.474;2023-11-21T15:30:50;7.60;99.90
19389;DHT22;9830;41.876;23.474;2023-11-21T15:33:17;7.50;99.90
19389;DHT22;9830;41.876;23.474;2023-11-21T15:35:43;7.40;99.90
19389;DHT22;9830;41.876;23.474;2023-11-21T15:38:09;7.40;99.90
19389;DHT22;9830;41.876;23.474;2023-11-21T15:40:35;7.30;99.90
19389;DHT22;9830;41.876;23.474;2023-11-21T15:43:01;7.30;99.90
19389;DHT22;9830;41.876;23.474;2023-11-21T15:45:28;7.20;99.90
19389;DHT22;9830;41.876;23.474;2023-11-21T15:47:54;7.10;99.90
19389;DHT22;9830;41.876;23.474;2023-11-21T15:50:22;7.00;99.90
19389;DHT22;9830;41.876;23.474;2023-11-21T15:52:48;7.00;99.90